Buoy 16575

sailwx.info

Track history (hours):
 
Tides and Currents Weather Stations Pressure Air Temp Water Temp Dewpoint Dewpoint Depression Visibility Wind Speed Wind Dir Waves Ship Positions

Drifting buoy 16575

Last reported at 2015-Feb-26 20:10 UTC. Time now 2015-Feb-26 23:22 UTC.
Position S 30°07' E 045°45'.

Water temperature 25.7 ° C

Date/timePositionNaut miles runAvg speedWind from/ knotsBaromVisibWave heightAir tempDewpointWater temp
2015-Feb-26 20:10S 30°07' E 045°45'1 0.5 25.7
2015-Feb-26 17:10S 30°08' E 045°46'1 0.7 25.7
2015-Feb-26 16:10S 30°09' E 045°46'1 1.0 25.8
2015-Feb-26 15:10S 30°09' E 045°47'1 1.1 26.0
2015-Feb-26 14:10S 30°10' E 045°47'0 0.1 26.0
2015-Feb-26 12:10S 30°11' E 045°47'1 1.2 26.0
2015-Feb-26 11:10S 30°12' E 045°48'0 0.2 26.0
2015-Feb-26 09:10S 30°11' E 045°48'0 0.2 25.8
2015-Feb-26 07:10S 30°12' E 045°48'0 0.4 25.5
2015-Feb-26 06:10S 30°12' E 045°48'0 0.3 25.3
2015-Feb-26 05:10S 30°12' E 045°48'0 0.2 25.2
2015-Feb-26 04:10S 30°12' E 045°48'1 0.7 25.2
2015-Feb-26 03:10S 30°13' E 045°48'0 0.4 25.2
2015-Feb-26 02:10S 30°13' E 045°48'1 0.3 25.2
2015-Feb-26 00:10S 30°14' E 045°49'1 1.0 25.2
2015-Feb-25 23:10S 30°14' E 045°49'0 0.1 25.2
2015-Feb-25 22:10S 30°14' E 045°49'1 0.5 25.2
2015-Feb-25 19:10S 30°16' E 045°49'0 0.2 25.2
2015-Feb-25 18:10S 30°16' E 045°49'0 0.3 25.2
2015-Feb-25 17:10S 30°16' E 045°50'0 0.1 25.3
2015-Feb-25 16:10S 30°16' E 045°50'1 1.3 25.3
2015-Feb-25 15:10S 30°16' E 045°51'1 0.6 25.5
2015-Feb-25 14:10S 30°16' E 045°52'2 1.6 25.6
2015-Feb-25 13:10S 30°17' E 045°53'0 0.4 25.6
2015-Feb-25 12:10S 30°18' E 045°53'5 4.6 25.5
2015-Feb-25 11:10S 30°22' E 045°56'0 0.0 25.5
2015-Feb-25 09:10S 30°22' E 045°56'3 0.9 25.3
2015-Feb-25 06:10S 30°24' E 045°55'2 0.9 25.2
2015-Feb-25 04:10S 30°26' E 045°56'1 0.7 25.2
2015-Feb-25 02:10S 30°27' E 045°57'0 0.5 25.2
2015-Feb-25 01:10S 30°28' E 045°57'1 0.5 25.2
2015-Feb-25 00:10S 30°28' E 045°57'1 0.6 25.2
2015-Feb-24 23:10S 30°29' E 045°58'1 0.5 25.2
2015-Feb-24 21:10S 30°30' E 045°59'2 1.7 25.2
2015-Feb-24 20:10S 30°31' E 045°60'0 0.2 25.2
2015-Feb-24 19:10S 30°31' E 045°60'6 1.4 25.2
2015-Feb-24 15:10S 30°34' E 046°05'1 0.7 25.2
2015-Feb-24 14:10S 30°35' E 046°06'1 0.9 25.2
2015-Feb-24 13:10S 30°35' E 046°06'2 2.2 25.3
2015-Feb-24 12:10S 30°37' E 046°08'0 0.0 25.3
2015-Feb-24 11:10S 30°37' E 046°08'4 2.2 25.3
2015-Feb-24 09:10S 30°40' E 046°11'1 0.2 25.2
2015-Feb-24 06:10S 30°41' E 046°12'1 0.7 25.2
2015-Feb-24 05:10S 30°41' E 046°12'1 0.8 25.2
2015-Feb-24 04:10S 30°41' E 046°13'2 2.0 25.2
2015-Feb-24 03:10S 30°42' E 046°15'3 2.6 25.2
2015-Feb-24 02:10S 30°43' E 046°18'0 0.0 25.3
2015-Feb-24 01:10S 30°43' E 046°18'0 0.1 25.3
2015-Feb-24 00:10S 30°43' E 046°18'2 2.1 25.3
2015-Feb-23 23:10S 30°44' E 046°20'1 0.7 25.3
2015-Feb-23 21:10S 30°44' E 046°22'1 1.1 25.2
2015-Feb-23 20:10S 30°45' E 046°23'2 0.9 25.2
2015-Feb-23 18:10S 30°45' E 046°25'1 1.2 25.3
2015-Feb-23 17:10S 30°45' E 046°26'1 1.4 25.3
2015-Feb-23 16:10S 30°46' E 046°28'2 2.0 25.4
2015-Feb-23 15:10S 30°47' E 046°30'1 0.9 25.5
2015-Feb-23 14:10S 30°47' E 046°31'1 1.1 25.5
2015-Feb-23 13:10S 30°48' E 046°32'2 2.5 25.6
2015-Feb-23 12:10S 30°49' E 046°34'2 1.7 25.5
2015-Feb-23 11:10S 30°51' E 046°35'0 0.0 25.5
2015-Feb-23 09:10S 30°51' E 046°35'3 1.7 25.4
2015-Feb-23 07:10S 30°52' E 046°38'1 0.5 25.4
2015-Feb-23 05:10S 30°53' E 046°40'1 0.6 25.2
2015-Feb-23 03:10S 30°53' E 046°41'2 1.7 25.1
2015-Feb-23 02:10S 30°53' E 046°43'1 0.6 25.1
2015-Feb-23 00:10S 30°54' E 046°44'0 0.4 25.1
2015-Feb-22 23:10S 30°54' E 046°45'1 1.1 25.2
2015-Feb-22 22:10S 30°55' E 046°46'0 0.1 25.2
2015-Feb-22 21:10S 30°55' E 046°46'1 1.1 25.2
2015-Feb-22 20:10S 30°55' E 046°47'2 0.8 25.2
2015-Feb-22 17:10S 30°55' E 046°50'1 0.9 25.8
2015-Feb-22 16:10S 30°55' E 046°51'1 1.5 26.2
2015-Feb-22 15:10S 30°55' E 046°53'0 0.0 26.5
2015-Feb-22 14:10S 30°55' E 046°53'1 1.3 26.8
2015-Feb-22 13:10S 30°55' E 046°54'1 0.6 26.8
2015-Feb-22 12:10S 30°55' E 046°55'3 1.5 26.4
2015-Feb-22 10:10S 30°56' E 046°58'2 1.5 25.8
2015-Feb-22 09:10S 30°56' E 046°56'2 0.7 25.7
2015-Feb-22 06:10S 30°55' E 046°59'2 1.6 25.1
2015-Feb-22 05:10S 30°54' E 047°00'0 0.0 25.0
2015-Feb-22 04:10S 30°54' E 047°00'0 0.0 25.0
2015-Feb-22 03:10S 30°54' E 047°00'2 1.5 25.0
2015-Feb-22 02:10S 30°54' E 047°02'3 1.1 25.0
2015-Feb-21 23:10S 30°53' E 047°06'4 0.7 25.0
2015-Feb-21 18:10S 30°52' E 047°10'1 1.1 25.2
2015-Feb-21 17:10S 30°52' E 047°11'3 1.1 25.2
2015-Feb-21 14:10S 30°52' E 047°15'2 0.8 25.2
2015-Feb-21 12:10S 30°53' E 047°17'1 0.8 25.3
2015-Feb-21 11:10S 30°53' E 047°17'4 0.4 25.3
2015-Feb-21 01:10S 30°51' E 047°21'1 1.4 25.0
2015-Feb-21 00:10S 30°51' E 047°23'1 1.4 25.1
2015-Feb-20 23:10S 30°51' E 047°25'2 0.5 25.1
2015-Feb-20 19:10S 30°51' E 047°27'1 0.4 25.2
2015-Feb-20 17:10S 30°51' E 047°27'1 0.9 25.2
2015-Feb-20 16:10S 30°52' E 047°28'4 1.0 25.2
2015-Feb-20 12:10S 30°54' E 047°33'0 0.0 25.4
2015-Feb-20 11:10S 30°54' E 047°33'5 0.4 25.4
2015-Feb-19 22:10S 30°55' E 047°38'2 1.6 25.0
2015-Feb-19 21:10S 30°55' E 047°40'2 0.6 25.0
2015-Feb-19 17:10S 30°56' E 047°42'3 1.4 25.1
2015-Feb-19 15:10S 30°58' E 047°44'1 0.5 25.2
2015-Feb-19 13:10S 30°59' E 047°44'4 0.4 25.2
2015-Feb-19 03:10S 31°02' E 047°48'0 0.1 24.9
2015-Feb-19 02:10S 31°02' E 047°48'2 0.8 24.9
2015-Feb-19 00:10S 31°01' E 047°50'6 1.1 25.0
2015-Feb-18 19:10S 31°05' E 047°55'2 0.7 24.9
2015-Feb-18 16:10S 31°07' E 047°56'0 0.3 25.0
2015-Feb-18 15:10S 31°07' E 047°56'2 0.7 25.0
2015-Feb-18 12:10S 31°09' E 047°56'3 1.4 25.0
2015-Feb-18 10:10S 31°11' E 047°57'0 0.0 25.0
2015-Feb-18 08:10S 31°11' E 047°57'0 0.2 24.9
2015-Feb-18 06:10S 31°12' E 047°57'0 0.4 24.9
2015-Feb-18 05:10S 31°12' E 047°57'0 0.3 24.8
2015-Feb-18 04:10S 31°12' E 047°58'0 0.5 24.8
2015-Feb-18 03:10S 31°12' E 047°58'0 0.2 24.8
2015-Feb-18 01:10S 31°13' E 047°59'1 0.9 24.9
2015-Feb-18 00:10S 31°13' E 047°59'1 0.6 24.9
2015-Feb-17 22:10S 31°14' E 048°01'8 1.3 25.0
2015-Feb-17 16:10S 31°21' E 048°05'0 0.0 25.0
2015-Feb-17 15:10S 31°21' E 048°05'1 1.3 25.0
2015-Feb-17 14:10S 31°22' E 048°05'0 0.2 25.1
2015-Feb-17 13:10S 31°22' E 048°05'1 1.4 25.2
2015-Feb-17 12:10S 31°23' E 048°05'0 0.0 25.2
2015-Feb-17 11:10S 31°23' E 048°05'0 0.0 25.2
2015-Feb-17 09:10S 31°23' E 048°05'0 0.2 25.2
2015-Feb-17 07:10S 31°23' E 048°04'1 0.6 25.2
2015-Feb-17 06:10S 31°23' E 048°04'1 0.6 25.2
2015-Feb-17 05:10S 31°22' E 048°04'0 0.4 25.1
2015-Feb-17 04:10S 31°22' E 048°04'2 0.4 25.0
2015-Feb-17 00:10S 31°21' E 048°05'1 1.1 25.0
2015-Feb-16 23:10S 31°21' E 048°07'   25.0
Track history (hours):
 
Tides and Currents Weather Stations Pressure Air Temp Water Temp Dewpoint Dewpoint Depression Visibility Wind Speed Wind Dir Waves Ship Positions

Drifting buoy 16575

Last reported at 2015-Feb-26 20:10 UTC. Time now 2015-Feb-26 23:22 UTC.
Position S 30°07' E 045°45'.

Water temperature 25.7 ° C

Date/timePositionNaut miles runAvg speedWind from/ knotsBaromVisibWave heightAir tempDewpointWater temp
2015-Feb-26 20:10S 30°07' E 045°45'1 0.5 25.7
2015-Feb-26 17:10S 30°08' E 045°46'1 0.7 25.7
2015-Feb-26 16:10S 30°09' E 045°46'1 1.0 25.8
2015-Feb-26 15:10S 30°09' E 045°47'1 1.1 26.0
2015-Feb-26 14:10S 30°10' E 045°47'0 0.1 26.0
2015-Feb-26 12:10S 30°11' E 045°47'1 1.2 26.0
2015-Feb-26 11:10S 30°12' E 045°48'0 0.2 26.0
2015-Feb-26 09:10S 30°11' E 045°48'0 0.2 25.8
2015-Feb-26 07:10S 30°12' E 045°48'0 0.4 25.5
2015-Feb-26 06:10S 30°12' E 045°48'0 0.3 25.3
2015-Feb-26 05:10S 30°12' E 045°48'0 0.2 25.2
2015-Feb-26 04:10S 30°12' E 045°48'1 0.7 25.2
2015-Feb-26 03:10S 30°13' E 045°48'0 0.4 25.2
2015-Feb-26 02:10S 30°13' E 045°48'1 0.3 25.2
2015-Feb-26 00:10S 30°14' E 045°49'1 1.0 25.2
2015-Feb-25 23:10S 30°14' E 045°49'0 0.1 25.2
2015-Feb-25 22:10S 30°14' E 045°49'1 0.5 25.2
2015-Feb-25 19:10S 30°16' E 045°49'0 0.2 25.2
2015-Feb-25 18:10S 30°16' E 045°49'0 0.3 25.2
2015-Feb-25 17:10S 30°16' E 045°50'0 0.1 25.3
2015-Feb-25 16:10S 30°16' E 045°50'1 1.3 25.3
2015-Feb-25 15:10S 30°16' E 045°51'1 0.6 25.5
2015-Feb-25 14:10S 30°16' E 045°52'2 1.6 25.6
2015-Feb-25 13:10S 30°17' E 045°53'0 0.4 25.6
2015-Feb-25 12:10S 30°18' E 045°53'5 4.6 25.5
2015-Feb-25 11:10S 30°22' E 045°56'0 0.0 25.5
2015-Feb-25 09:10S 30°22' E 045°56'3 0.9 25.3
2015-Feb-25 06:10S 30°24' E 045°55'2 0.9 25.2
2015-Feb-25 04:10S 30°26' E 045°56'1 0.7 25.2
2015-Feb-25 02:10S 30°27' E 045°57'0 0.5 25.2
2015-Feb-25 01:10S 30°28' E 045°57'1 0.5 25.2
2015-Feb-25 00:10S 30°28' E 045°57'1 0.6 25.2
2015-Feb-24 23:10S 30°29' E 045°58'1 0.5 25.2
2015-Feb-24 21:10S 30°30' E 045°59'2 1.7 25.2
2015-Feb-24 20:10S 30°31' E 045°60'0 0.2 25.2
2015-Feb-24 19:10S 30°31' E 045°60'6 1.4 25.2
2015-Feb-24 15:10S 30°34' E 046°05'1 0.7 25.2
2015-Feb-24 14:10S 30°35' E 046°06'1 0.9 25.2
2015-Feb-24 13:10S 30°35' E 046°06'2 2.2 25.3
2015-Feb-24 12:10S 30°37' E 046°08'0 0.0 25.3
2015-Feb-24 11:10S 30°37' E 046°08'4 2.2 25.3
2015-Feb-24 09:10S 30°40' E 046°11'1 0.2 25.2
2015-Feb-24 06:10S 30°41' E 046°12'1 0.7 25.2
2015-Feb-24 05:10S 30°41' E 046°12'1 0.8 25.2
2015-Feb-24 04:10S 30°41' E 046°13'2 2.0 25.2
2015-Feb-24 03:10S 30°42' E 046°15'3 2.6 25.2
2015-Feb-24 02:10S 30°43' E 046°18'0 0.0 25.3
2015-Feb-24 01:10S 30°43' E 046°18'0 0.1 25.3
2015-Feb-24 00:10S 30°43' E 046°18'2 2.1 25.3
2015-Feb-23 23:10S 30°44' E 046°20'1 0.7 25.3
2015-Feb-23 21:10S 30°44' E 046°22'1 1.1 25.2
2015-Feb-23 20:10S 30°45' E 046°23'2 0.9 25.2
2015-Feb-23 18:10S 30°45' E 046°25'1 1.2 25.3
2015-Feb-23 17:10S 30°45' E 046°26'1 1.4 25.3
2015-Feb-23 16:10S 30°46' E 046°28'2 2.0 25.4
2015-Feb-23 15:10S 30°47' E 046°30'1 0.9 25.5
2015-Feb-23 14:10S 30°47' E 046°31'1 1.1 25.5
2015-Feb-23 13:10S 30°48' E 046°32'2 2.5 25.6
2015-Feb-23 12:10S 30°49' E 046°34'2 1.7 25.5
2015-Feb-23 11:10S 30°51' E 046°35'0 0.0 25.5
2015-Feb-23 09:10S 30°51' E 046°35'3 1.7 25.4
2015-Feb-23 07:10S 30°52' E 046°38'1 0.5 25.4
2015-Feb-23 05:10S 30°53' E 046°40'1 0.6 25.2
2015-Feb-23 03:10S 30°53' E 046°41'2 1.7 25.1
2015-Feb-23 02:10S 30°53' E 046°43'1 0.6 25.1
2015-Feb-23 00:10S 30°54' E 046°44'0 0.4 25.1
2015-Feb-22 23:10S 30°54' E 046°45'1 1.1 25.2
2015-Feb-22 22:10S 30°55' E 046°46'0 0.1 25.2
2015-Feb-22 21:10S 30°55' E 046°46'1 1.1 25.2
2015-Feb-22 20:10S 30°55' E 046°47'2 0.8 25.2
2015-Feb-22 17:10S 30°55' E 046°50'1 0.9 25.8
2015-Feb-22 16:10S 30°55' E 046°51'1 1.5 26.2
2015-Feb-22 15:10S 30°55' E 046°53'0 0.0 26.5
2015-Feb-22 14:10S 30°55' E 046°53'1 1.3 26.8
2015-Feb-22 13:10S 30°55' E 046°54'1 0.6 26.8
2015-Feb-22 12:10S 30°55' E 046°55'3 1.5 26.4
2015-Feb-22 10:10S 30°56' E 046°58'2 1.5 25.8
2015-Feb-22 09:10S 30°56' E 046°56'2 0.7 25.7
2015-Feb-22 06:10S 30°55' E 046°59'2 1.6 25.1
2015-Feb-22 05:10S 30°54' E 047°00'0 0.0 25.0
2015-Feb-22 04:10S 30°54' E 047°00'0 0.0 25.0
2015-Feb-22 03:10S 30°54' E 047°00'2 1.5 25.0
2015-Feb-22 02:10S 30°54' E 047°02'3 1.1 25.0
2015-Feb-21 23:10S 30°53' E 047°06'4 0.7 25.0
2015-Feb-21 18:10S 30°52' E 047°10'1 1.1 25.2
2015-Feb-21 17:10S 30°52' E 047°11'3 1.1 25.2
2015-Feb-21 14:10S 30°52' E 047°15'2 0.8 25.2
2015-Feb-21 12:10S 30°53' E 047°17'1 0.8 25.3
2015-Feb-21 11:10S 30°53' E 047°17'4 0.4 25.3
2015-Feb-21 01:10S 30°51' E 047°21'1 1.4 25.0
2015-Feb-21 00:10S 30°51' E 047°23'1 1.4 25.1
2015-Feb-20 23:10S 30°51' E 047°25'2 0.5 25.1
2015-Feb-20 19:10S 30°51' E 047°27'1 0.4 25.2
2015-Feb-20 17:10S 30°51' E 047°27'1 0.9 25.2
2015-Feb-20 16:10S 30°52' E 047°28'4 1.0 25.2
2015-Feb-20 12:10S 30°54' E 047°33'0 0.0 25.4
2015-Feb-20 11:10S 30°54' E 047°33'5 0.4 25.4
2015-Feb-19 22:10S 30°55' E 047°38'2 1.6 25.0
2015-Feb-19 21:10S 30°55' E 047°40'2 0.6 25.0
2015-Feb-19 17:10S 30°56' E 047°42'3 1.4 25.1
2015-Feb-19 15:10S 30°58' E 047°44'1 0.5 25.2
2015-Feb-19 13:10S 30°59' E 047°44'4 0.4 25.2
2015-Feb-19 03:10S 31°02' E 047°48'0 0.1 24.9
2015-Feb-19 02:10S 31°02' E 047°48'2 0.8 24.9
2015-Feb-19 00:10S 31°01' E 047°50'6 1.1 25.0
2015-Feb-18 19:10S 31°05' E 047°55'2 0.7 24.9
2015-Feb-18 16:10S 31°07' E 047°56'0 0.3 25.0
2015-Feb-18 15:10S 31°07' E 047°56'2 0.7 25.0
2015-Feb-18 12:10S 31°09' E 047°56'3 1.4 25.0
2015-Feb-18 10:10S 31°11' E 047°57'0 0.0 25.0
2015-Feb-18 08:10S 31°11' E 047°57'0 0.2 24.9
2015-Feb-18 06:10S 31°12' E 047°57'0 0.4 24.9
2015-Feb-18 05:10S 31°12' E 047°57'0 0.3 24.8
2015-Feb-18 04:10S 31°12' E 047°58'0 0.5 24.8
2015-Feb-18 03:10S 31°12' E 047°58'0 0.2 24.8
2015-Feb-18 01:10S 31°13' E 047°59'1 0.9 24.9
2015-Feb-18 00:10S 31°13' E 047°59'1 0.6 24.9
2015-Feb-17 22:10S 31°14' E 048°01'8 1.3 25.0
2015-Feb-17 16:10S 31°21' E 048°05'0 0.0 25.0
2015-Feb-17 15:10S 31°21' E 048°05'1 1.3 25.0
2015-Feb-17 14:10S 31°22' E 048°05'0 0.2 25.1
2015-Feb-17 13:10S 31°22' E 048°05'1 1.4 25.2
2015-Feb-17 12:10S 31°23' E 048°05'0 0.0 25.2
2015-Feb-17 11:10S 31°23' E 048°05'0 0.0 25.2
2015-Feb-17 09:10S 31°23' E 048°05'0 0.2 25.2
2015-Feb-17 07:10S 31°23' E 048°04'1 0.6 25.2
2015-Feb-17 06:10S 31°23' E 048°04'1 0.6 25.2
2015-Feb-17 05:10S 31°22' E 048°04'0 0.4 25.1
2015-Feb-17 04:10S 31°22' E 048°04'2 0.4 25.0
2015-Feb-17 00:10S 31°21' E 048°05'1 1.1 25.0
2015-Feb-16 23:10S 31°21' E 048°07'   25.0

Dump ship's entire track history